createdAt,value
2023-05-15T00:00:16.339Z,82.43
2023-05-15T00:02:44.681Z,82.77
2023-05-15T00:05:13.085Z,82.15
2023-05-15T00:07:40.719Z,81.83
2023-05-15T00:10:08.741Z,82.45
2023-05-15T00:12:36.722Z,82.40
2023-05-15T00:15:04.168Z,82.03
2023-05-15T00:17:31.272Z,81.71
2023-05-15T00:19:59.821Z,81.59
2023-05-15T00:22:27.063Z,82.08
2023-05-15T00:24:54.123Z,82.48
2023-05-15T00:27:21.394Z,82.08
2023-05-15T00:29:48.550Z,82.16
2023-05-15T00:32:15.701Z,82.37
2023-05-15T00:34:42.830Z,82.45
2023-05-15T00:37:09.969Z,82.33
2023-05-15T00:39:37.046Z,82.03
2023-05-15T00:42:05.537Z,81.62
2023-05-15T00:44:33.871Z,81.84
2023-05-15T00:47:03.395Z,81.69
2023-05-15T00:49:32.824Z,81.39
2023-05-15T00:52:02.110Z,81.97
2023-05-15T00:54:29.437Z,81.98
2023-05-15T00:56:58.079Z,81.97
2023-05-15T00:59:26.444Z,81.83
2023-05-15T01:01:53.753Z,81.14
2023-05-15T01:04:21.389Z,81.24
2023-05-15T01:06:49.005Z,81.04
2023-05-15T01:09:16.327Z,81.33
2023-05-15T01:11:44.877Z,81.78
2023-05-15T01:14:11.955Z,81.67
2023-05-15T01:16:39.166Z,82.20
2023-05-15T01:19:06.531Z,82.24
2023-05-15T01:21:44.575Z,82.32
2023-05-15T01:24:18.586Z,82.66
2023-05-15T01:27:11.117Z,82.56
2023-05-15T01:29:45.008Z,82.79
2023-05-15T01:32:19.817Z,82.97
2023-05-15T01:35:10.086Z,82.71
2023-05-15T01:37:41.691Z,82.40
2023-05-15T01:40:10.777Z,82.45
2023-05-15T01:42:42.289Z,82.02
2023-05-15T01:45:11.528Z,81.63
2023-05-15T01:47:41.982Z,82.37
2023-05-15T01:50:11.742Z,82.46
2023-05-15T01:52:41.986Z,82.64
2023-05-15T01:55:09.701Z,82.82
2023-05-15T01:57:37.491Z,82.33
2023-05-15T02:00:05.324Z,82.08
2023-05-15T02:02:32.728Z,81.88
2023-05-15T02:05:00.111Z,81.79
2023-05-15T02:07:27.478Z,82.49
2023-05-15T02:09:55.557Z,82.66
2023-05-15T02:12:23.505Z,82.79
2023-05-15T02:14:51.086Z,83.04
2023-05-15T02:17:18.504Z,83.15
2023-05-15T02:19:45.733Z,83.32
2023-05-15T02:22:13.052Z,82.84
2023-05-15T02:24:40.191Z,82.99
2023-05-15T02:27:23.859Z,83.02
2023-05-15T02:30:11.791Z,82.80
2023-05-15T02:32:47.207Z,83.10
2023-05-15T02:35:38.403Z,82.81
2023-05-15T02:38:11.492Z,82.80
2023-05-15T02:40:40.072Z,82.66
2023-05-15T02:43:09.615Z,82.82
2023-05-15T02:45:37.125Z,82.85
2023-05-15T02:48:05.541Z,82.61
2023-05-15T02:50:32.733Z,82.39
2023-05-15T02:53:07.551Z,82.02
2023-05-15T02:55:34.989Z,82.23
2023-05-15T02:58:03.048Z,82.35
2023-05-15T03:00:30.512Z,82.47
2023-05-15T03:02:57.595Z,82.48
2023-05-15T03:05:24.833Z,82.70
2023-05-15T03:07:52.550Z,82.48
2023-05-15T03:10:21.172Z,82.67
2023-05-15T03:12:48.289Z,82.77
2023-05-15T03:15:15.987Z,82.82
2023-05-15T03:17:43.128Z,82.83
2023-05-15T03:20:11.126Z,82.75
2023-05-15T03:22:38.376Z,82.46
2023-05-15T03:25:05.868Z,82.66
2023-05-15T03:27:32.926Z,82.78
2023-05-15T03:30:00.361Z,83.09
2023-05-15T03:32:27.437Z,83.15
2023-05-15T03:34:54.607Z,83.59
2023-05-15T03:37:21.671Z,83.03
2023-05-15T03:39:48.754Z,82.42
2023-05-15T03:42:15.788Z,82.51
2023-05-15T03:44:42.978Z,82.56
2023-05-15T03:47:10.004Z,83.00
2023-05-15T03:49:37.061Z,82.10
2023-05-15T03:52:04.218Z,82.01
2023-05-15T03:54:31.295Z,82.47
2023-05-15T03:56:58.365Z,82.28
2023-05-15T03:59:25.485Z,82.65
2023-05-15T04:02:03.623Z,82.59
2023-05-15T04:04:32.616Z,82.68
2023-05-15T04:06:59.951Z,82.42
2023-05-15T04:09:26.974Z,82.55
2023-05-15T04:11:54.104Z,82.51
2023-05-15T04:14:21.174Z,82.68
2023-05-15T04:16:48.440Z,82.24
2023-05-15T04:19:15.720Z,82.01
2023-05-15T04:21:42.845Z,82.23
2023-05-15T04:24:09.889Z,82.33
2023-05-15T04:26:37.156Z,82.42
2023-05-15T04:29:04.884Z,81.85
2023-05-15T04:31:32.326Z,82.21
2023-05-15T04:33:59.496Z,82.24
2023-05-15T04:36:26.561Z,82.20
2023-05-15T04:38:53.607Z,82.47
2023-05-15T04:41:20.979Z,81.91
2023-05-15T04:43:48.032Z,82.10
2023-05-15T04:46:15.159Z,81.81
2023-05-15T04:48:42.403Z,82.22
2023-05-15T04:51:09.467Z,82.16
2023-05-15T04:53:36.512Z,82.46
2023-05-15T04:56:03.873Z,82.32
2023-05-15T04:58:31.073Z,82.14
2023-05-15T05:00:58.133Z,82.31
2023-05-15T05:03:25.372Z,82.49
2023-05-15T05:05:52.434Z,82.20
2023-05-15T05:08:19.610Z,81.86
2023-05-15T05:10:46.648Z,81.79
2023-05-15T05:13:13.704Z,81.85
2023-05-15T05:15:40.850Z,81.53
2023-05-15T05:18:08.574Z,81.85
2023-05-15T05:20:36.555Z,81.70
2023-05-15T05:23:03.599Z,81.08
2023-05-15T05:25:30.768Z,81.59
2023-05-15T05:27:57.844Z,81.17
2023-05-15T05:30:24.905Z,80.65
2023-05-15T05:32:52.034Z,78.80
2023-05-15T05:35:19.153Z,78.97
2023-05-15T05:37:46.208Z,79.16
2023-05-15T05:40:13.330Z,79.22
2023-05-15T05:42:40.898Z,80.36
2023-05-15T05:45:08.272Z,80.53
2023-05-15T05:47:35.489Z,79.21
2023-05-15T05:50:03.135Z,79.61
2023-05-15T05:52:30.907Z,79.16
2023-05-15T05:54:58.082Z,76.93
2023-05-15T05:57:25.265Z,77.11
2023-05-15T05:59:55.217Z,77.06
2023-05-15T06:02:22.371Z,76.60
2023-05-15T06:04:49.803Z,76.06
2023-05-15T06:07:17.120Z,75.61
2023-05-15T06:09:45.910Z,75.37
2023-05-15T06:12:12.954Z,75.16
2023-05-15T06:14:40.027Z,75.88
2023-05-15T06:17:07.108Z,74.99
2023-05-15T06:19:34.261Z,75.18
2023-05-15T06:22:01.321Z,74.78
2023-05-15T06:24:28.461Z,74.68
2023-05-15T06:26:55.631Z,74.12
2023-05-15T06:29:22.759Z,73.27
2023-05-15T06:31:49.899Z,72.12
2023-05-15T06:34:17.015Z,72.27
2023-05-15T06:36:44.939Z,72.96
2023-05-15T06:39:12.274Z,72.15
2023-05-15T06:41:39.401Z,72.80
2023-05-15T06:44:07.093Z,73.12
2023-05-15T06:46:34.213Z,73.09
2023-05-15T06:49:01.333Z,73.90
2023-05-15T06:51:28.430Z,73.22
2023-05-15T06:53:55.579Z,72.75
2023-05-15T06:56:22.756Z,72.28
2023-05-15T06:58:50.150Z,72.27
2023-05-15T07:01:17.420Z,72.36
2023-05-15T07:03:44.647Z,71.96
2023-05-15T07:06:11.717Z,71.89
2023-05-15T07:08:38.749Z,71.08
2023-05-15T07:11:05.815Z,70.44
2023-05-15T07:13:32.926Z,68.68
2023-05-15T07:16:00.031Z,70.01
2023-05-15T07:18:27.140Z,69.27
2023-05-15T07:20:54.242Z,70.38
2023-05-15T07:23:21.292Z,69.62
2023-05-15T07:25:48.535Z,69.77
2023-05-15T07:28:15.670Z,69.26
2023-05-15T07:30:42.724Z,69.67
2023-05-15T07:33:09.804Z,68.43
2023-05-15T07:35:36.948Z,69.91
2023-05-15T07:38:04.089Z,68.35
2023-05-15T07:40:31.467Z,68.79
2023-05-15T07:42:58.844Z,68.85
2023-05-15T07:45:26.157Z,67.18
2023-05-15T07:47:53.503Z,68.81
2023-05-15T07:50:21.029Z,67.36
2023-05-15T07:52:48.186Z,68.07
2023-05-15T07:55:15.320Z,67.82
2023-05-15T07:57:42.468Z,67.65
2023-05-15T08:00:12.839Z,67.27
2023-05-15T08:02:40.644Z,66.47
2023-05-15T08:05:08.168Z,65.94
2023-05-15T08:07:35.534Z,65.19
2023-05-15T08:10:05.967Z,64.73
2023-05-15T08:12:33.913Z,64.34
2023-05-15T08:15:00.981Z,64.40
2023-05-15T08:17:28.177Z,64.26
2023-05-15T08:19:55.587Z,64.51
2023-05-15T08:22:22.687Z,63.42
2023-05-15T08:24:49.769Z,62.30
2023-05-15T08:27:16.908Z,62.42
2023-05-15T08:29:44.011Z,58.82
2023-05-15T08:32:11.101Z,59.87
2023-05-15T08:34:38.834Z,58.91
2023-05-15T08:37:06.772Z,59.29
2023-05-15T08:39:33.858Z,58.58
2023-05-15T08:42:08.301Z,57.13
2023-05-15T08:44:36.410Z,58.51
2023-05-15T08:47:04.633Z,58.08
2023-05-15T08:49:56.484Z,58.07
2023-05-15T08:52:23.752Z,58.42
2023-05-15T08:54:50.891Z,58.33
2023-05-15T08:57:18.328Z,59.14
2023-05-15T08:59:46.261Z,59.20
2023-05-15T09:02:13.388Z,58.73
2023-05-15T09:04:40.547Z,58.70
2023-05-15T09:07:07.846Z,59.26
2023-05-15T09:09:35.550Z,58.62
2023-05-15T09:12:04.253Z,57.96
2023-05-15T09:14:31.387Z,58.14
2023-05-15T09:16:59.421Z,57.40
2023-05-15T09:19:26.853Z,57.92
2023-05-15T09:21:53.914Z,57.19
2023-05-15T09:24:25.381Z,56.70
2023-05-15T09:27:06.610Z,56.60
2023-05-15T09:29:35.600Z,57.14
2023-05-15T09:32:14.184Z,57.37
2023-05-15T09:34:44.234Z,57.02
2023-05-15T09:37:28.932Z,56.10
2023-05-15T09:39:56.211Z,57.06
2023-05-15T09:42:24.536Z,57.32
2023-05-15T09:44:53.443Z,57.23
2023-05-15T09:47:20.730Z,56.83
2023-05-15T09:49:48.007Z,56.98
2023-05-15T09:52:15.943Z,56.93
2023-05-15T09:54:48.747Z,57.67
2023-05-15T09:57:22.209Z,57.92
2023-05-15T09:59:49.559Z,57.67
2023-05-15T10:02:24.987Z,57.77
2023-05-15T10:04:56.933Z,58.12
2023-05-15T10:07:29.036Z,57.63
2023-05-15T10:09:56.189Z,57.45
2023-05-15T10:12:27.220Z,56.66
2023-05-15T10:14:56.335Z,58.97
2023-05-15T10:17:24.158Z,58.70
2023-05-15T10:22:26.433Z,59.22
2023-05-15T10:25:00.948Z,59.15
2023-05-15T10:27:28.333Z,58.96
2023-05-15T10:29:57.047Z,58.45
2023-05-15T10:32:25.395Z,57.92
2023-05-15T10:34:53.751Z,57.86
2023-05-15T10:37:20.968Z,57.53
2023-05-15T10:39:48.205Z,57.00
2023-05-15T10:42:15.870Z,56.10
2023-05-15T10:44:43.062Z,55.73
2023-05-15T10:47:10.420Z,55.94
2023-05-15T10:49:37.540Z,56.01
2023-05-15T10:52:04.880Z,56.28
2023-05-15T10:54:31.957Z,56.59
2023-05-15T10:56:59.044Z,57.37
2023-05-15T10:59:32.029Z,56.62
2023-05-15T11:02:29.759Z,56.60
2023-05-15T11:04:58.753Z,56.51
2023-05-15T11:07:26.221Z,56.07
2023-05-15T11:09:54.309Z,54.32
2023-05-15T11:12:21.946Z,53.64
2023-05-15T11:14:51.889Z,53.64
2023-05-15T11:17:18.982Z,52.56
2023-05-15T11:19:49.032Z,50.57
2023-05-15T11:22:42.518Z,49.00
2023-05-15T11:25:12.088Z,49.45
2023-05-15T11:27:44.146Z,49.70
2023-05-15T11:30:20.801Z,49.72
2023-05-15T11:32:48.056Z,49.85
2023-05-15T11:35:29.551Z,49.13
2023-05-15T11:38:04.993Z,50.50
2023-05-15T11:40:36.500Z,48.22
2023-05-15T11:43:24.779Z,47.52
2023-05-15T11:45:55.993Z,47.49
2023-05-15T11:48:26.006Z,47.77
2023-05-15T11:50:53.980Z,48.28
2023-05-15T11:53:23.070Z,47.37
2023-05-15T11:55:52.471Z,48.70
2023-05-15T11:58:24.805Z,49.36
2023-05-15T12:00:53.460Z,49.12
2023-05-15T12:03:24.396Z,47.36
2023-05-15T12:05:59.146Z,49.20
2023-05-15T12:08:32.545Z,48.23
2023-05-15T12:11:00.592Z,48.35
2023-05-15T12:13:27.728Z,48.75
2023-05-15T12:15:55.435Z,47.93
2023-05-15T12:18:23.168Z,50.18
2023-05-15T12:20:52.665Z,49.44
2023-05-15T12:23:22.329Z,49.20
2023-05-15T12:25:52.887Z,50.03
2023-05-15T12:28:20.034Z,49.97
2023-05-15T12:30:47.545Z,49.02
2023-05-15T12:33:15.159Z,49.88
2023-05-15T12:35:52.424Z,49.21
2023-05-15T12:38:20.537Z,49.85
2023-05-15T12:40:47.661Z,49.26
2023-05-15T12:43:14.975Z,49.70
2023-05-15T12:45:42.135Z,48.66
2023-05-15T12:48:14.450Z,48.02
2023-05-15T12:50:44.528Z,48.01
2023-05-15T12:53:14.768Z,46.96
2023-05-15T12:55:46.462Z,47.63
2023-05-15T12:58:15.983Z,47.64
2023-05-15T13:00:45.993Z,48.05
2023-05-15T13:03:13.845Z,47.86
2023-05-15T13:05:45.623Z,48.74
2023-05-15T13:08:17.798Z,49.70
2023-05-15T13:10:46.017Z,48.42
2023-05-15T13:13:13.563Z,49.03
2023-05-15T13:15:43.290Z,48.59
2023-05-15T13:18:12.178Z,48.53
2023-05-15T13:20:42.308Z,48.72
2023-05-15T13:23:11.527Z,48.99
2023-05-15T13:25:38.794Z,49.33
2023-05-15T13:28:06.630Z,49.12
2023-05-15T13:30:34.753Z,48.98
2023-05-15T13:33:02.688Z,48.62
2023-05-15T13:35:29.796Z,48.75
2023-05-15T13:37:57.188Z,48.85
2023-05-15T13:40:24.521Z,48.39
2023-05-15T13:42:51.777Z,48.86
2023-05-15T13:45:19.090Z,48.61
2023-05-15T13:47:46.164Z,48.69
2023-05-15T13:50:14.451Z,48.02
2023-05-15T13:52:42.697Z,48.04
2023-05-15T13:55:10.370Z,48.89
2023-05-15T13:57:38.654Z,49.17
2023-05-15T14:00:12.592Z,48.86
2023-05-15T14:02:40.519Z,48.14
2023-05-15T14:05:09.846Z,48.48
2023-05-15T14:07:37.385Z,48.94
2023-05-15T14:10:04.949Z,49.03
2023-05-15T14:12:32.898Z,49.06
2023-05-15T14:15:00.724Z,49.08
2023-05-15T14:17:28.153Z,49.00
2023-05-15T14:19:55.404Z,49.46
2023-05-15T14:22:24.850Z,49.33
2023-05-15T14:24:55.151Z,49.38
2023-05-15T14:27:22.335Z,49.65
2023-05-15T14:29:49.734Z,49.70
2023-05-15T14:32:17.385Z,49.77
2023-05-15T14:34:44.621Z,49.39
2023-05-15T14:37:12.045Z,49.25
2023-05-15T14:39:39.263Z,50.26
2023-05-15T14:42:06.928Z,49.88
2023-05-15T14:44:34.699Z,49.89
2023-05-15T14:47:09.958Z,49.72
2023-05-15T14:49:37.721Z,50.02
2023-05-15T14:52:09.589Z,47.29
2023-05-15T14:54:37.512Z,47.52
2023-05-15T14:57:04.683Z,46.68
2023-05-15T14:59:31.911Z,46.76
2023-05-15T15:01:59.015Z,46.95
2023-05-15T15:04:30.589Z,46.96
2023-05-15T15:06:57.761Z,46.17
2023-05-15T15:09:28.335Z,46.93
2023-05-15T15:11:56.161Z,46.74
2023-05-15T15:14:23.214Z,46.32
2023-05-15T15:16:50.531Z,45.30
2023-05-15T15:19:19.956Z,44.79
2023-05-15T15:21:47.884Z,44.59
2023-05-15T15:24:15.520Z,44.89
2023-05-15T15:26:43.023Z,44.81
2023-05-15T15:29:10.052Z,45.92
2023-05-15T15:31:37.144Z,46.46
2023-05-15T15:34:05.696Z,47.15
2023-05-15T15:36:33.151Z,47.85
2023-05-15T15:39:00.306Z,48.01
2023-05-15T15:41:30.709Z,47.83
2023-05-15T15:43:57.867Z,47.95
2023-05-15T15:46:25.020Z,48.05
2023-05-15T15:48:52.265Z,48.19
2023-05-15T15:51:22.245Z,48.03
2023-05-15T15:53:49.293Z,47.64
2023-05-15T15:56:16.396Z,47.66
2023-05-15T15:58:43.482Z,47.22
2023-05-15T16:01:10.854Z,47.00
2023-05-15T16:03:37.957Z,47.30
2023-05-15T16:06:05.374Z,47.34
2023-05-15T16:08:32.428Z,47.32
2023-05-15T16:10:59.512Z,46.94
2023-05-15T16:13:26.962Z,46.95
2023-05-15T16:15:54.224Z,45.91
2023-05-15T16:18:21.459Z,46.78
2023-05-15T16:20:48.578Z,46.69
2023-05-15T16:23:16.295Z,46.53
2023-05-15T16:25:44.671Z,47.00
2023-05-15T16:28:12.188Z,47.26
2023-05-15T16:30:48.791Z,47.48
2023-05-15T16:33:18.026Z,47.15
2023-05-15T16:35:45.767Z,47.88
2023-05-15T16:38:13.828Z,47.59
2023-05-15T16:40:41.286Z,47.76
2023-05-15T16:43:08.625Z,48.12
2023-05-15T16:45:35.801Z,48.54
2023-05-15T16:48:02.950Z,48.00
2023-05-15T16:50:35.852Z,48.28
2023-05-15T16:53:03.636Z,47.68
2023-05-15T16:55:32.555Z,47.60
2023-05-15T16:57:59.748Z,48.34
2023-05-15T17:00:27.026Z,47.94
2023-05-15T17:02:54.846Z,48.12
2023-05-15T17:05:22.058Z,48.05
2023-05-15T17:07:49.165Z,48.96
2023-05-15T17:10:16.339Z,48.64
2023-05-15T17:12:43.541Z,49.18
2023-05-15T17:15:11.167Z,49.20
2023-05-15T17:17:38.334Z,49.15
2023-05-15T17:20:06.211Z,49.15
2023-05-15T17:22:33.301Z,49.20
2023-05-15T17:25:01.222Z,49.61
2023-05-15T17:27:28.275Z,49.62
2023-05-15T17:29:55.421Z,49.90
2023-05-15T17:32:22.807Z,50.15
2023-05-15T17:34:52.704Z,50.66
2023-05-15T17:37:19.835Z,50.58
2023-05-15T17:39:47.094Z,50.44
2023-05-15T17:42:14.193Z,50.12
2023-05-15T17:44:41.374Z,50.05
2023-05-15T17:47:10.253Z,49.88
2023-05-15T17:49:38.615Z,50.25
2023-05-15T17:52:06.452Z,50.53
2023-05-15T17:54:33.828Z,50.60
2023-05-15T17:57:01.333Z,50.82
2023-05-15T17:59:29.328Z,50.69
2023-05-15T18:01:56.836Z,50.83
2023-05-15T18:04:24.160Z,50.95
2023-05-15T18:06:52.183Z,51.26
2023-05-15T18:09:23.222Z,51.05
2023-05-15T18:11:51.163Z,50.83
2023-05-15T18:14:18.230Z,51.02
2023-05-15T18:16:45.434Z,50.65
2023-05-15T18:19:12.758Z,50.89
2023-05-15T18:21:39.951Z,51.12
2023-05-15T18:24:07.122Z,50.92
2023-05-15T18:26:34.203Z,50.95
2023-05-15T18:29:01.338Z,51.19
2023-05-15T18:31:28.652Z,51.24
2023-05-15T18:33:55.818Z,51.78
2023-05-15T18:36:22.881Z,51.96
2023-05-15T18:38:49.969Z,52.36
2023-05-15T18:41:16.999Z,52.71
2023-05-15T18:43:44.093Z,52.70
2023-05-15T18:46:11.282Z,52.84
2023-05-15T18:48:38.300Z,53.22
2023-05-15T18:51:05.399Z,53.34
2023-05-15T18:53:32.468Z,53.72
2023-05-15T18:55:59.529Z,53.87
2023-05-15T18:58:26.698Z,54.02
2023-05-15T19:00:54.043Z,54.12
2023-05-15T19:03:21.191Z,54.11
2023-05-15T19:05:48.326Z,54.63
2023-05-15T19:08:15.431Z,54.83
2023-05-15T19:10:47.722Z,54.79
2023-05-15T19:13:14.784Z,54.96
2023-05-15T19:15:50.354Z,55.19
2023-05-15T19:18:17.768Z,55.13
2023-05-15T19:20:44.923Z,55.32
2023-05-15T19:23:12.816Z,55.10
2023-05-15T19:25:39.866Z,54.98
2023-05-15T19:28:07.073Z,55.36
2023-05-15T19:30:34.118Z,55.69
2023-05-15T19:33:01.212Z,56.03
2023-05-15T19:35:28.264Z,56.14
2023-05-15T19:37:55.376Z,56.12
2023-05-15T19:40:22.504Z,56.18
2023-05-15T19:42:49.578Z,56.42
2023-05-15T19:45:16.707Z,56.42
2023-05-15T19:47:44.010Z,56.74
2023-05-15T19:50:11.123Z,57.07
2023-05-15T19:52:38.211Z,57.22
2023-05-15T19:55:05.735Z,57.37
2023-05-15T19:57:32.766Z,58.03
2023-05-15T19:59:59.895Z,57.76
2023-05-15T20:02:27.081Z,57.86
2023-05-15T20:04:54.181Z,57.90
2023-05-15T20:07:21.295Z,58.13
2023-05-15T20:09:48.332Z,58.61
2023-05-15T20:12:15.374Z,58.66
2023-05-15T20:14:42.751Z,59.06
2023-05-15T20:17:09.819Z,59.08
2023-05-15T20:19:37.168Z,58.94
2023-05-15T20:22:04.549Z,59.01
2023-05-15T20:24:32.279Z,59.45
2023-05-15T20:26:59.326Z,59.64
2023-05-15T20:29:26.737Z,59.67
2023-05-15T20:31:53.931Z,59.66
2023-05-15T20:34:21.771Z,59.92
2023-05-15T20:36:52.623Z,60.09
2023-05-15T20:39:20.095Z,60.41
2023-05-15T20:41:47.172Z,60.52
2023-05-15T20:44:14.252Z,60.97
2023-05-15T20:46:42.616Z,61.10
2023-05-15T20:49:09.686Z,61.42
2023-05-15T20:51:36.757Z,61.05
2023-05-15T20:54:03.907Z,61.33
2023-05-15T20:56:30.951Z,61.08
2023-05-15T20:58:59.810Z,61.05
2023-05-15T21:01:27.181Z,61.41
2023-05-15T21:03:54.253Z,62.05
2023-05-15T21:06:21.469Z,61.85
2023-05-15T21:08:48.517Z,61.80
2023-05-15T21:11:15.771Z,61.81
2023-05-15T21:13:42.893Z,62.35
2023-05-15T21:16:09.944Z,62.51
2023-05-15T21:18:38.893Z,62.10
2023-05-15T21:21:08.866Z,62.18
2023-05-15T21:23:36.661Z,62.38
2023-05-15T21:26:04.073Z,62.95
2023-05-15T21:28:31.195Z,62.79
2023-05-15T21:30:58.368Z,62.71
2023-05-15T21:33:25.590Z,62.88
2023-05-15T21:35:52.980Z,62.95
2023-05-15T21:38:20.031Z,62.95
2023-05-15T21:40:47.107Z,63.33
2023-05-15T21:43:14.171Z,62.86
2023-05-15T21:45:41.216Z,62.68
2023-05-15T21:48:08.378Z,63.17
2023-05-15T21:50:35.718Z,63.16
2023-05-15T21:53:02.755Z,63.48
2023-05-15T21:55:29.803Z,62.92
2023-05-15T21:57:56.883Z,63.36
2023-05-15T22:00:24.124Z,63.40
2023-05-15T22:02:51.459Z,63.55
2023-05-15T22:05:18.652Z,63.62
2023-05-15T22:07:45.719Z,64.15
2023-05-15T22:10:16.636Z,64.24
2023-05-15T22:12:44.316Z,64.32
2023-05-15T22:15:12.417Z,64.37
2023-05-15T22:17:39.513Z,64.68
2023-05-15T22:20:08.326Z,64.62
2023-05-15T22:22:35.666Z,65.05
2023-05-15T22:25:02.985Z,64.45
2023-05-15T22:27:30.155Z,65.16
2023-05-15T22:29:57.340Z,64.73
2023-05-15T22:32:24.607Z,65.17
2023-05-15T22:34:51.900Z,65.48
2023-05-15T22:37:19.118Z,65.87
2023-05-15T22:39:46.213Z,65.72
2023-05-15T22:42:13.307Z,66.09
2023-05-15T22:44:40.384Z,66.21
2023-05-15T22:47:07.714Z,66.23
2023-05-15T22:49:34.831Z,66.46
2023-05-15T22:52:02.115Z,66.53
2023-05-15T22:54:29.199Z,66.74
2023-05-15T22:56:56.338Z,66.49
2023-05-15T22:59:23.498Z,66.79
2023-05-15T23:01:50.781Z,67.15
2023-05-15T23:04:18.216Z,67.51
2023-05-15T23:06:45.783Z,67.27
2023-05-15T23:09:12.882Z,67.43
2023-05-15T23:11:39.910Z,67.85
2023-05-15T23:14:08.376Z,67.97
2023-05-15T23:16:35.900Z,68.02
2023-05-15T23:19:03.126Z,67.91
2023-05-15T23:21:30.448Z,67.91
2023-05-15T23:23:57.486Z,68.26
2023-05-15T23:26:24.566Z,68.08
2023-05-15T23:28:51.724Z,68.24
2023-05-15T23:31:18.833Z,68.52
2023-05-15T23:33:45.985Z,68.62
2023-05-15T23:36:13.094Z,68.80
2023-05-15T23:38:40.374Z,68.60
2023-05-15T23:41:07.847Z,68.90
2023-05-15T23:43:35.021Z,68.86
2023-05-15T23:46:02.906Z,69.08
2023-05-15T23:48:31.656Z,69.13
2023-05-15T23:50:58.818Z,69.27
2023-05-15T23:53:25.942Z,69.13
2023-05-15T23:55:53.104Z,69.49
2023-05-15T23:58:20.221Z,69.59
